createdAt,value
2023-05-10T00:01:57.969Z,95939.53
2023-05-10T00:04:28.198Z,95937.50
2023-05-10T00:06:54.863Z,95934.91
2023-05-10T00:09:21.181Z,95935.59
2023-05-10T00:11:47.509Z,95930.47
2023-05-10T00:14:13.871Z,95929.94
2023-05-10T00:16:40.237Z,95934.47
2023-05-10T00:19:06.562Z,95946.97
2023-05-10T00:21:34.554Z,95937.25
2023-05-10T00:24:01.258Z,95936.69
2023-05-10T00:26:27.597Z,95942.13
2023-05-10T00:28:54.005Z,95930.78
2023-05-10T00:31:20.310Z,95928.09
2023-05-10T00:33:46.683Z,95932.59
2023-05-10T00:36:13.188Z,95939.66
2023-05-10T00:38:39.506Z,95943.59
2023-05-10T00:41:05.860Z,95942.97
2023-05-10T00:43:32.266Z,95952.72
2023-05-10T00:45:58.712Z,95953.94
2023-05-10T00:48:25.411Z,95957.94
2023-05-10T00:50:52.704Z,95951.75
2023-05-10T00:53:19.691Z,95948.16
2023-05-10T00:55:46.068Z,95951.47
2023-05-10T00:58:13.566Z,95952.16
2023-05-10T01:00:41.890Z,95949.75
2023-05-10T01:03:08.675Z,95951.16
2023-05-10T01:05:35.354Z,95959.75
2023-05-10T01:08:01.974Z,95961.16
2023-05-10T01:10:28.351Z,95962.41
2023-05-10T01:12:54.884Z,95972.25
2023-05-10T01:15:21.489Z,95975.31
2023-05-10T01:17:48.682Z,95977.22
2023-05-10T01:20:16.532Z,95977.44
2023-05-10T01:22:55.229Z,95973.81
2023-05-10T01:25:54.883Z,95965.69
2023-05-10T01:28:30.759Z,95978.25
2023-05-10T01:31:10.600Z,95984.81
2023-05-10T01:33:42.753Z,95992.75
2023-05-10T01:36:27.987Z,95992.28
2023-05-10T01:38:59.448Z,95994.06
2023-05-10T01:41:38.489Z,95984.16
2023-05-10T01:44:04.774Z,95983.09
2023-05-10T01:46:38.692Z,95979.88
2023-05-10T01:49:25.347Z,95982.66
2023-05-10T01:51:54.652Z,95986.56
2023-05-10T01:54:22.562Z,95996.41
2023-05-10T01:56:51.484Z,95995.09
2023-05-10T01:59:19.263Z,95994.50
2023-05-10T02:01:46.341Z,95997.44
2023-05-10T02:04:15.977Z,95998.56
2023-05-10T02:06:42.547Z,95994.28
2023-05-10T02:09:09.986Z,95990.50
2023-05-10T02:11:38.541Z,95996.41
2023-05-10T02:14:06.609Z,95999.75
2023-05-10T02:16:33.420Z,95999.47
2023-05-10T02:19:00.422Z,96004.34
2023-05-10T02:21:27.727Z,96006.72
2023-05-10T02:23:55.130Z,96006.00
2023-05-10T02:26:22.098Z,96007.78
2023-05-10T02:28:48.749Z,96014.91
2023-05-10T02:31:15.616Z,96015.06
2023-05-10T02:33:42.354Z,96007.13
2023-05-10T02:36:10.327Z,96013.06
2023-05-10T02:38:37.270Z,96012.53
2023-05-10T02:41:05.338Z,96007.25
2023-05-10T02:43:33.249Z,96010.66
2023-05-10T02:45:59.801Z,96004.63
2023-05-10T02:48:26.806Z,96013.50
2023-05-10T02:50:56.762Z,96007.16
2023-05-10T02:53:32.174Z,96014.31
2023-05-10T02:56:00.715Z,96014.81
2023-05-10T02:58:28.168Z,96019.59
2023-05-10T03:00:54.773Z,96012.47
2023-05-10T03:03:21.960Z,96016.38
2023-05-10T03:05:48.295Z,96020.53
2023-05-10T03:08:14.971Z,96030.22
2023-05-10T03:10:53.001Z,96027.50
2023-05-10T03:13:22.278Z,96026.72
2023-05-10T03:15:56.558Z,96022.88
2023-05-10T03:18:23.936Z,96022.47
2023-05-10T03:20:51.407Z,96026.59
2023-05-10T03:23:20.496Z,96017.03
2023-05-10T03:25:48.018Z,96018.63
2023-05-10T03:28:15.380Z,96021.72
2023-05-10T03:30:42.522Z,96022.63
2023-05-10T03:33:09.153Z,96035.41
2023-05-10T03:35:35.652Z,96038.06
2023-05-10T03:38:02.262Z,96043.03
2023-05-10T03:40:33.121Z,96042.97
2023-05-10T03:43:00.182Z,96031.41
2023-05-10T03:45:27.723Z,96034.66
2023-05-10T03:47:55.021Z,96036.91
2023-05-10T03:50:21.593Z,96037.75
2023-05-10T03:52:48.119Z,96035.22
2023-05-10T03:55:14.439Z,96036.03
2023-05-10T03:57:40.819Z,96037.66
2023-05-10T04:00:11.632Z,96044.59
2023-05-10T04:02:38.701Z,96043.75
2023-05-10T04:05:05.484Z,96048.47
2023-05-10T04:07:31.838Z,96046.88
2023-05-10T04:09:58.968Z,96043.84
2023-05-10T04:12:27.833Z,96050.53
2023-05-10T04:14:54.204Z,96046.81
2023-05-10T04:17:20.522Z,96044.00
2023-05-10T04:19:46.873Z,96052.03
2023-05-10T04:22:13.201Z,96045.94
2023-05-10T04:24:39.656Z,96041.47
2023-05-10T04:27:05.948Z,96039.44
2023-05-10T04:29:32.305Z,96040.84
2023-05-10T04:31:58.846Z,96039.69
2023-05-10T04:34:25.332Z,96031.09
2023-05-10T04:36:51.745Z,96032.03
2023-05-10T04:39:18.080Z,96042.41
2023-05-10T04:41:44.465Z,96033.00
2023-05-10T04:44:10.796Z,96038.38
2023-05-10T04:46:37.311Z,96029.44
2023-05-10T04:49:03.652Z,96030.38
2023-05-10T04:51:30.008Z,96032.94
2023-05-10T04:54:05.262Z,96026.88
2023-05-10T04:56:32.619Z,96029.16
2023-05-10T04:58:59.091Z,96024.34
2023-05-10T05:01:25.411Z,96040.25
2023-05-10T05:03:53.741Z,96042.53
2023-05-10T05:06:22.348Z,96045.09
2023-05-10T05:08:50.313Z,96048.38
2023-05-10T05:11:17.488Z,96052.00
2023-05-10T05:13:44.817Z,96062.72
2023-05-10T05:16:12.360Z,96071.66
2023-05-10T05:18:38.822Z,96070.47
2023-05-10T05:21:14.305Z,96068.53
2023-05-10T05:23:40.626Z,96070.31
2023-05-10T05:26:06.927Z,96072.13
2023-05-10T05:28:38.114Z,96079.75
2023-05-10T05:31:08.659Z,96076.84
2023-05-10T05:33:35.368Z,96072.72
2023-05-10T05:36:02.531Z,96082.69
2023-05-10T05:38:29.127Z,96091.00
2023-05-10T05:40:56.660Z,96100.63
2023-05-10T05:43:23.104Z,96100.78
2023-05-10T05:45:49.619Z,96107.69
2023-05-10T05:48:16.078Z,96123.50
2023-05-10T05:50:42.474Z,96115.19
2023-05-10T05:53:09.661Z,96108.78
2023-05-10T05:55:36.322Z,96122.94
2023-05-10T05:58:02.752Z,96111.34
2023-05-10T06:00:29.131Z,96118.44
2023-05-10T06:02:55.511Z,96117.34
2023-05-10T06:05:22.721Z,96113.59
2023-05-10T06:07:49.055Z,96127.63
2023-05-10T06:10:15.389Z,96123.88
2023-05-10T06:12:41.819Z,96128.03
2023-05-10T06:15:08.553Z,96130.16
2023-05-10T06:17:34.980Z,96124.75
2023-05-10T06:20:01.890Z,96127.53
2023-05-10T06:22:28.188Z,96129.00
2023-05-10T06:24:54.496Z,96127.34
2023-05-10T06:27:20.924Z,96127.78
2023-05-10T06:29:47.236Z,96129.91
2023-05-10T06:32:13.625Z,96128.88
2023-05-10T06:34:39.992Z,96129.66
2023-05-10T06:37:06.288Z,96136.50
2023-05-10T06:39:32.610Z,96140.22
2023-05-10T06:41:58.942Z,96130.34
2023-05-10T06:44:25.252Z,96136.78
2023-05-10T06:46:52.121Z,96132.88
2023-05-10T06:49:18.586Z,96137.72
2023-05-10T06:51:44.895Z,96137.59
2023-05-10T06:54:11.320Z,96142.44
2023-05-10T06:56:37.761Z,96135.72
2023-05-10T06:59:04.391Z,96141.03
2023-05-10T07:01:30.776Z,96137.91
2023-05-10T07:03:58.416Z,96147.06
2023-05-10T07:06:32.784Z,96145.97
2023-05-10T07:09:00.200Z,96146.31
2023-05-10T07:11:27.745Z,96138.97
2023-05-10T07:13:54.049Z,96144.75
2023-05-10T07:16:20.593Z,96147.25
2023-05-10T07:18:47.014Z,96140.78
2023-05-10T07:21:13.646Z,96134.66
2023-05-10T07:23:41.346Z,96137.16
2023-05-10T07:26:08.777Z,96132.69
2023-05-10T07:28:37.618Z,96130.16
2023-05-10T07:31:04.145Z,96139.19
2023-05-10T07:33:30.446Z,96133.91
2023-05-10T07:35:57.488Z,96129.50
2023-05-10T07:38:24.332Z,96137.78
2023-05-10T07:40:50.762Z,96147.41
2023-05-10T07:43:17.071Z,96153.13
2023-05-10T07:45:43.515Z,96150.75
2023-05-10T07:48:09.915Z,96151.72
2023-05-10T07:50:36.260Z,96145.44
2023-05-10T07:53:02.584Z,96155.91
2023-05-10T07:55:28.965Z,96147.94
2023-05-10T07:57:56.659Z,96149.66
2023-05-10T08:00:23.044Z,96148.25
2023-05-10T08:02:49.572Z,96158.97
2023-05-10T08:05:16.366Z,96157.56
2023-05-10T08:07:43.548Z,96161.69
2023-05-10T08:10:10.720Z,96157.72
2023-05-10T08:12:37.118Z,96153.09
2023-05-10T08:15:04.227Z,96162.31
2023-05-10T08:17:30.662Z,96161.50
2023-05-10T08:19:57.677Z,96163.16
2023-05-10T08:22:24.123Z,96161.13
2023-05-10T08:24:50.527Z,96161.81
2023-05-10T08:27:16.831Z,96160.25
2023-05-10T08:29:50.199Z,96155.41
2023-05-10T08:32:17.122Z,96153.31
2023-05-10T08:34:43.515Z,96148.59
2023-05-10T08:37:10.002Z,96149.41
2023-05-10T08:39:36.608Z,96150.84
2023-05-10T08:42:04.736Z,96145.66
2023-05-10T08:44:35.068Z,96161.38
2023-05-10T08:47:03.606Z,96164.72
2023-05-10T08:49:31.940Z,96158.31
2023-05-10T08:51:59.045Z,96160.22
2023-05-10T08:54:27.039Z,96150.34
2023-05-10T08:56:54.221Z,96158.00
2023-05-10T08:59:20.733Z,96155.72
2023-05-10T09:01:49.167Z,96152.97
2023-05-10T09:04:15.564Z,96162.63
2023-05-10T09:06:42.135Z,96157.38
2023-05-10T09:09:08.554Z,96161.84
2023-05-10T09:11:34.951Z,96156.81
2023-05-10T09:14:02.213Z,96164.41
2023-05-10T09:16:28.601Z,96163.22
2023-05-10T09:18:57.656Z,96161.88
2023-05-10T09:21:24.094Z,96157.72
2023-05-10T09:23:51.235Z,96156.41
2023-05-10T09:26:18.436Z,96160.09
2023-05-10T09:28:54.783Z,96153.88
2023-05-10T09:31:21.378Z,96150.84
2023-05-10T09:33:48.672Z,96150.47
2023-05-10T09:36:15.536Z,96155.88
2023-05-10T09:38:52.806Z,96160.09
2023-05-10T09:41:20.337Z,96158.28
2023-05-10T09:43:46.705Z,96156.16
2023-05-10T09:46:13.190Z,96152.75
2023-05-10T09:48:43.312Z,96157.09
2023-05-10T09:51:09.681Z,96164.59
2023-05-10T09:53:36.025Z,96168.09
2023-05-10T09:56:02.507Z,96159.66
2023-05-10T09:58:28.849Z,96162.72
2023-05-10T10:00:56.443Z,96163.81
2023-05-10T10:03:23.582Z,96173.53
2023-05-10T10:05:50.369Z,96175.22
2023-05-10T10:08:17.576Z,96184.63
2023-05-10T10:10:47.115Z,96176.50
2023-05-10T10:13:13.946Z,96175.53
2023-05-10T10:15:40.304Z,96182.69
2023-05-10T10:18:08.062Z,96183.34
2023-05-10T10:20:34.443Z,96179.63
2023-05-10T10:23:00.777Z,96189.91
2023-05-10T10:25:28.143Z,96195.38
2023-05-10T10:27:54.613Z,96197.00
2023-05-10T10:30:27.837Z,96198.50
2023-05-10T10:33:00.277Z,96205.06
2023-05-10T10:35:27.749Z,96203.75
2023-05-10T10:37:54.040Z,96201.66
2023-05-10T10:40:33.631Z,96197.53
2023-05-10T10:43:19.835Z,96203.41
2023-05-10T10:46:06.893Z,96198.59
2023-05-10T10:48:33.346Z,96198.31
2023-05-10T10:50:59.727Z,96206.19
2023-05-10T10:53:29.857Z,96205.28
2023-05-10T10:56:16.527Z,96205.69
2023-05-10T10:58:51.040Z,96196.59
2023-05-10T11:01:18.239Z,96198.03
2023-05-10T11:03:59.749Z,96205.06
2023-05-10T11:06:29.806Z,96196.13
2023-05-10T11:08:57.386Z,96193.56
2023-05-10T11:11:24.023Z,96195.69
2023-05-10T11:13:51.427Z,96195.72
2023-05-10T11:16:25.095Z,96201.31
2023-05-10T11:18:57.825Z,96200.06
2023-05-10T11:21:24.402Z,96208.19
2023-05-10T11:23:52.042Z,96208.66
2023-05-10T11:26:18.914Z,96202.06
2023-05-10T11:28:46.279Z,96193.56
2023-05-10T11:31:16.429Z,96192.50
2023-05-10T11:33:46.431Z,96196.75
2023-05-10T11:36:13.482Z,96194.09
2023-05-10T11:38:39.795Z,96193.34
2023-05-10T11:41:06.164Z,96188.03
2023-05-10T11:43:33.139Z,96192.09
2023-05-10T11:45:59.939Z,96187.97
2023-05-10T11:48:26.495Z,96188.19
2023-05-10T11:50:53.796Z,96197.97
2023-05-10T11:53:21.429Z,96193.16
2023-05-10T11:55:48.451Z,96200.38
2023-05-10T11:58:14.803Z,96198.25
2023-05-10T12:00:41.239Z,96200.25
2023-05-10T12:03:07.750Z,96197.03
2023-05-10T12:05:34.752Z,96209.09
2023-05-10T12:08:13.943Z,96196.28
2023-05-10T12:10:40.798Z,96198.94
2023-05-10T12:13:11.479Z,96211.09
2023-05-10T12:15:37.892Z,96213.78
2023-05-10T12:18:04.256Z,96212.31
2023-05-10T12:20:30.786Z,96206.25
2023-05-10T12:23:00.585Z,96199.97
2023-05-10T12:25:30.751Z,96206.09
2023-05-10T12:27:58.567Z,96204.66
2023-05-10T12:30:26.716Z,96210.78
2023-05-10T12:32:53.752Z,96205.78
2023-05-10T12:35:24.964Z,96205.84
2023-05-10T12:37:51.681Z,96202.41
2023-05-10T12:40:18.337Z,96206.25
2023-05-10T12:42:47.899Z,96196.25
2023-05-10T12:45:14.367Z,96198.16
2023-05-10T12:47:43.767Z,96193.69
2023-05-10T12:50:10.751Z,96204.47
2023-05-10T12:52:37.496Z,96203.78
2023-05-10T12:55:04.175Z,96207.00
2023-05-10T12:57:30.625Z,96203.41
2023-05-10T12:59:57.704Z,96195.50
2023-05-10T13:02:24.223Z,96197.69
2023-05-10T13:04:51.109Z,96200.59
2023-05-10T13:07:17.795Z,96198.13
2023-05-10T13:09:44.366Z,96193.22
2023-05-10T13:12:10.918Z,96200.09
2023-05-10T13:14:37.323Z,96201.56
2023-05-10T13:17:03.840Z,96202.69
2023-05-10T13:19:30.399Z,96204.75
2023-05-10T13:21:57.141Z,96206.50
2023-05-10T13:24:23.504Z,96212.59
2023-05-10T13:26:50.316Z,96204.09
2023-05-10T13:29:18.929Z,96204.09
2023-05-10T13:31:45.337Z,96205.59
2023-05-10T13:34:11.930Z,96200.91
2023-05-10T13:36:38.275Z,96206.94
2023-05-10T13:39:06.216Z,96210.13
2023-05-10T13:41:32.698Z,96206.53
2023-05-10T13:43:59.015Z,96204.28
2023-05-10T13:46:25.413Z,96202.69
2023-05-10T13:48:51.810Z,96210.00
2023-05-10T13:51:18.496Z,96204.09
2023-05-10T13:53:44.778Z,96204.97
2023-05-10T13:58:55.922Z,96197.31
2023-05-10T14:01:22.391Z,96194.75
2023-05-10T14:03:49.283Z,96193.72
2023-05-10T14:06:15.853Z,96197.47
2023-05-10T14:08:42.220Z,96195.59
2023-05-10T14:11:08.599Z,96205.72
2023-05-10T14:13:35.109Z,96203.78
2023-05-10T14:16:01.766Z,96195.16
2023-05-10T14:18:28.842Z,96194.50
2023-05-10T14:20:55.792Z,96191.81
2023-05-10T14:23:25.020Z,96190.16
2023-05-10T14:25:51.988Z,96196.78
2023-05-10T14:28:19.913Z,96185.13
2023-05-10T14:30:46.359Z,96181.56
2023-05-10T14:33:13.300Z,96188.03
2023-05-10T14:35:40.291Z,96177.75
2023-05-10T14:38:06.679Z,96170.50
2023-05-10T14:40:33.043Z,96186.16
2023-05-10T14:43:00.150Z,96176.66
2023-05-10T14:45:26.532Z,96172.53
2023-05-10T14:47:52.972Z,96173.00
2023-05-10T14:50:35.133Z,96165.69
2023-05-10T14:55:46.301Z,96181.72
2023-05-10T14:58:12.776Z,96178.41
2023-05-10T15:00:39.140Z,96189.50
2023-05-10T15:03:06.296Z,96189.06
2023-05-10T15:05:33.127Z,96183.66
2023-05-10T15:08:00.253Z,96167.16
2023-05-10T15:10:26.686Z,96173.97
2023-05-10T15:12:53.113Z,96179.88
2023-05-10T15:15:19.577Z,96178.28
2023-05-10T15:17:46.929Z,96186.94
2023-05-10T15:20:13.389Z,96185.47
2023-05-10T15:22:39.786Z,96178.94
2023-05-10T15:25:06.607Z,96161.59
2023-05-10T15:27:32.952Z,96164.19
2023-05-10T15:30:00.950Z,96159.69
2023-05-10T15:32:27.488Z,96150.16
2023-05-10T15:34:53.844Z,96150.03
2023-05-10T15:37:20.177Z,96141.50
2023-05-10T15:39:46.546Z,96137.34
2023-05-10T15:42:13.296Z,96133.69
2023-05-10T15:44:39.870Z,96141.00
2023-05-10T15:47:06.986Z,96142.94
2023-05-10T15:49:33.841Z,96138.16
2023-05-10T15:52:00.226Z,96132.88
2023-05-10T15:54:26.900Z,96139.72
2023-05-10T15:56:54.881Z,96143.88
2023-05-10T15:59:21.237Z,96148.47
2023-05-10T16:01:47.818Z,96150.94
2023-05-10T16:04:14.296Z,96169.44
2023-05-10T16:06:40.667Z,96176.47
2023-05-10T16:09:07.855Z,96180.38
2023-05-10T16:11:34.665Z,96187.25
2023-05-10T16:14:01.003Z,96173.75
2023-05-10T16:16:27.562Z,96172.47
2023-05-10T16:18:54.199Z,96179.44
2023-05-10T16:21:20.836Z,96176.28
2023-05-10T16:23:47.351Z,96188.66
2023-05-10T16:26:13.646Z,96187.88
2023-05-10T16:28:40.955Z,96189.88
2023-05-10T16:31:07.397Z,96191.72
2023-05-10T16:33:33.731Z,96191.84
2023-05-10T16:36:00.727Z,96195.66
2023-05-10T16:38:27.182Z,96189.25
2023-05-10T16:40:53.520Z,96187.22
2023-05-10T16:43:19.861Z,96197.31
2023-05-10T16:45:46.202Z,96206.34
2023-05-10T16:48:12.596Z,96202.97
2023-05-10T16:50:39.008Z,96203.19
2023-05-10T16:53:05.541Z,96201.63
2023-05-10T16:55:31.984Z,96200.75
2023-05-10T16:58:00.812Z,96197.72
2023-05-10T17:00:27.340Z,96197.91
2023-05-10T17:02:54.686Z,96207.72
2023-05-10T17:05:21.653Z,96204.44
2023-05-10T17:07:48.097Z,96215.09
2023-05-10T17:10:14.514Z,96210.28
2023-05-10T17:12:41.066Z,96202.47
2023-05-10T17:15:08.365Z,96206.91
2023-05-10T17:17:34.792Z,96206.91
2023-05-10T17:20:01.394Z,96203.72
2023-05-10T17:22:30.506Z,96202.41
2023-05-10T17:24:56.885Z,96198.28
2023-05-10T17:27:23.346Z,96189.63
2023-05-10T17:29:49.639Z,96195.22
2023-05-10T17:32:16.092Z,96190.50
2023-05-10T17:34:42.538Z,96189.84
2023-05-10T17:37:09.301Z,96192.97
2023-05-10T17:39:35.962Z,96187.78
2023-05-10T17:42:03.841Z,96194.41
2023-05-10T17:44:30.300Z,96203.19
2023-05-10T17:46:56.693Z,96202.66
2023-05-10T17:49:23.228Z,96212.69
2023-05-10T17:51:49.664Z,96212.38
2023-05-10T17:54:16.067Z,96213.59
2023-05-10T17:56:42.758Z,96206.69
2023-05-10T17:59:09.114Z,96213.41
2023-05-10T18:01:35.979Z,96219.81
2023-05-10T18:04:02.430Z,96221.56
2023-05-10T18:06:29.856Z,96232.53
2023-05-10T18:08:56.454Z,96228.53
2023-05-10T18:11:22.965Z,96235.72
2023-05-10T18:13:49.936Z,96238.81
2023-05-10T18:16:16.407Z,96241.09
2023-05-10T18:18:42.866Z,96244.00
2023-05-10T18:21:09.573Z,96245.28
2023-05-10T18:23:36.204Z,96234.97
2023-05-10T18:26:04.885Z,96235.91
2023-05-10T18:28:31.297Z,96240.19
2023-05-10T18:30:59.544Z,96234.34
2023-05-10T18:33:26.068Z,96237.97
2023-05-10T18:35:52.419Z,96236.75
2023-05-10T18:38:19.490Z,96237.03
2023-05-10T18:40:46.044Z,96242.97
2023-05-10T18:43:12.655Z,96242.00
2023-05-10T18:45:39.614Z,96253.13
2023-05-10T18:48:06.729Z,96248.53
2023-05-10T18:50:33.213Z,96251.22
2023-05-10T18:52:59.868Z,96253.50
2023-05-10T18:55:26.287Z,96259.81
2023-05-10T18:58:01.062Z,96260.22
2023-05-10T19:00:29.170Z,96265.44
2023-05-10T19:02:55.689Z,96272.25
2023-05-10T19:05:27.099Z,96275.47
2023-05-10T19:07:53.420Z,96275.59
2023-05-10T19:10:19.810Z,96278.03
2023-05-10T19:12:46.239Z,96288.84
2023-05-10T19:15:12.677Z,96281.22
2023-05-10T19:17:42.153Z,96289.78
2023-05-10T19:20:10.546Z,96288.56
2023-05-10T19:22:51.480Z,96298.59
2023-05-10T19:25:30.315Z,96307.44
2023-05-10T19:27:59.858Z,96310.78
2023-05-10T19:30:26.519Z,96317.59
2023-05-10T19:32:52.991Z,96314.91
2023-05-10T19:35:19.700Z,96311.41
2023-05-10T19:37:47.227Z,96310.56
2023-05-10T19:40:15.661Z,96310.19
2023-05-10T19:42:41.981Z,96301.75
2023-05-10T19:45:08.939Z,96297.03
2023-05-10T19:47:36.304Z,96294.34
2023-05-10T19:50:05.194Z,96298.66
2023-05-10T19:52:31.571Z,96310.09
2023-05-10T19:54:58.636Z,96307.53
2023-05-10T19:57:25.104Z,96304.88
2023-05-10T19:59:51.416Z,96306.91
2023-05-10T20:02:17.812Z,96300.69
2023-05-10T20:04:44.159Z,96303.03
2023-05-10T20:07:12.346Z,96304.78
2023-05-10T20:09:39.185Z,96299.88
2023-05-10T20:12:05.508Z,96300.13
2023-05-10T20:14:31.988Z,96301.06
2023-05-10T20:17:00.860Z,96306.16
2023-05-10T20:19:27.429Z,96298.50
2023-05-10T20:21:56.221Z,96302.91
2023-05-10T20:24:22.642Z,96301.13
2023-05-10T20:26:49.451Z,96299.81
2023-05-10T20:29:15.788Z,96298.78
2023-05-10T20:31:42.539Z,96296.66
2023-05-10T20:34:08.920Z,96295.59
2023-05-10T20:36:35.207Z,96299.88
2023-05-10T20:39:01.591Z,96292.13
2023-05-10T20:41:27.904Z,96297.19
2023-05-10T20:43:54.196Z,96293.56
2023-05-10T20:46:20.600Z,96293.72
2023-05-10T20:48:47.170Z,96294.09
2023-05-10T20:51:13.525Z,96292.91
2023-05-10T20:53:39.963Z,96292.09
2023-05-10T20:56:06.419Z,96293.38
2023-05-10T20:58:32.849Z,96302.66
2023-05-10T21:01:00.737Z,96302.13
2023-05-10T21:03:27.264Z,96305.56
2023-05-10T21:05:53.623Z,96303.16
2023-05-10T21:08:19.988Z,96306.59
2023-05-10T21:10:46.513Z,96305.56
2023-05-10T21:13:13.210Z,96310.34
2023-05-10T21:15:39.554Z,96302.44
2023-05-10T21:18:06.359Z,96303.97
2023-05-10T21:20:32.834Z,96299.88
2023-05-10T21:23:00.657Z,96304.53
2023-05-10T21:25:27.041Z,96308.91
2023-05-10T21:27:53.416Z,96308.09
2023-05-10T21:30:19.971Z,96310.63
2023-05-10T21:32:46.768Z,96303.31
2023-05-10T21:35:13.200Z,96305.88
2023-05-10T21:37:39.753Z,96302.28
2023-05-10T21:40:06.266Z,96298.16
2023-05-10T21:42:32.704Z,96300.84
2023-05-10T21:44:59.505Z,96290.47
2023-05-10T21:47:25.900Z,96290.53
2023-05-10T21:49:52.397Z,96286.53
2023-05-10T21:52:18.767Z,96288.03
2023-05-10T21:54:45.220Z,96291.94
2023-05-10T21:57:12.055Z,96295.25
2023-05-10T21:59:39.387Z,96297.38
2023-05-10T22:02:05.754Z,96292.59
2023-05-10T22:04:32.338Z,96289.63
2023-05-10T22:06:58.781Z,96284.25
2023-05-10T22:09:25.390Z,96285.44
2023-05-10T22:11:51.866Z,96284.25
2023-05-10T22:14:18.383Z,96288.53
2023-05-10T22:16:44.813Z,96289.63
2023-05-10T22:19:11.257Z,96282.41
2023-05-10T22:21:37.671Z,96284.56
2023-05-10T22:24:04.086Z,96286.72
2023-05-10T22:26:30.813Z,96282.72
2023-05-10T22:28:57.600Z,96286.56
2023-05-10T22:31:23.960Z,96285.47
2023-05-10T22:33:50.483Z,96282.94
2023-05-10T22:36:16.840Z,96278.66
2023-05-10T22:38:43.196Z,96282.63
2023-05-10T22:41:09.506Z,96286.78
2023-05-10T22:43:35.961Z,96283.31
2023-05-10T22:46:02.376Z,96287.47
2023-05-10T22:48:28.836Z,96287.88
2023-05-10T22:50:55.249Z,96281.75
2023-05-10T22:53:21.699Z,96280.94
2023-05-10T22:55:48.224Z,96270.63
2023-05-10T22:58:14.630Z,96277.88
2023-05-10T23:00:41.247Z,96278.84
2023-05-10T23:03:07.729Z,96273.25
2023-05-10T23:05:34.157Z,96276.16
2023-05-10T23:08:00.634Z,96277.78
2023-05-10T23:10:26.926Z,96276.94
2023-05-10T23:12:53.241Z,96275.38
2023-05-10T23:15:19.616Z,96268.34
2023-05-10T23:17:46.411Z,96269.91
2023-05-10T23:20:13.053Z,96267.41
2023-05-10T23:22:40.090Z,96266.91
2023-05-10T23:25:06.897Z,96268.50
2023-05-10T23:27:33.300Z,96276.63
2023-05-10T23:30:00.036Z,96268.00
2023-05-10T23:32:26.464Z,96269.84
2023-05-10T23:34:53.154Z,96267.13
2023-05-10T23:37:19.495Z,96271.91
2023-05-10T23:39:45.922Z,96264.97
2023-05-10T23:42:12.241Z,96263.09
2023-05-10T23:44:38.617Z,96255.63
2023-05-10T23:47:05.077Z,96260.41
2023-05-10T23:49:31.849Z,96254.91
2023-05-10T23:51:58.175Z,96261.88
2023-05-10T23:54:24.513Z,96255.88
2023-05-10T23:56:51.560Z,96252.97
2023-05-10T23:59:17.952Z,96254.31
